Time;durP1;ratioP1;P1;durP2;ratioP2;P2;SDS_P1;SDS_P2;PMS_P1;PMS_P2;Temp;Humidity;BMP_temperature;BMP_pressure;BME280_temperature;BME280_humidity;BME280_pressure;Samples;Min_cycle;Max_cycle;Signal;HPM_P1;HPM_P2
2023/12/08 00:01:17;;;;;;;1.75;1.20;;;22.90;30.20;;;;;;5090571;28;20039;-67
2023/12/08 00:03:42;;;;;;;2.33;1.50;;;23.10;30.10;;;;;;5090166;28;20040;-67
2023/12/08 00:06:09;;;;;;;1.85;1.20;;;23.20;30.00;;;;;;5090473;28;20043;-67
2023/12/08 00:08:34;;;;;;;2.13;1.50;;;23.30;29.90;;;;;;5091880;28;20090;-66
2023/12/08 00:11:00;;;;;;;1.90;1.40;;;23.40;29.80;;;;;;5091759;28;20040;-67
2023/12/08 00:13:26;;;;;;;2.38;1.40;;;23.50;29.80;;;;;;5091839;28;20040;-67
2023/12/08 00:15:51;;;;;;;1.60;1.50;;;23.60;29.70;;;;;;5091514;28;20048;-67
2023/12/08 00:18:17;;;;;;;1.00;0.73;;;23.60;29.60;;;;;;5091652;28;20028;-67
2023/12/08 00:20:43;;;;;;;1.75;1.10;;;23.60;29.50;;;;;;5089047;28;20493;-67
2023/12/08 00:23:08;;;;;;;1.90;1.02;;;23.70;29.50;;;;;;5088829;28;20063;-67
2023/12/08 00:25:34;;;;;;;1.95;1.08;;;23.80;29.50;;;;;;5090741;28;20075;-67
2023/12/08 00:28:00;;;;;;;1.25;1.00;;;23.80;29.40;;;;;;5090603;28;20475;-67
2023/12/08 00:30:26;;;;;;;1.00;0.82;;;23.80;29.40;;;;;;5091607;28;20391;-67
2023/12/08 00:32:51;;;;;;;1.50;1.30;;;23.80;29.30;;;;;;5090539;28;20539;-67
2023/12/08 00:35:18;;;;;;;2.60;1.30;;;23.90;29.30;;;;;;5089832;28;20119;-67
2023/12/08 00:37:44;;;;;;;1.75;1.10;;;23.90;29.20;;;;;;5090488;28;20395;-67
2023/12/08 00:40:11;;;;;;;1.83;1.20;;;23.90;29.30;;;;;;5090310;28;20044;-67
2023/12/08 00:42:37;;;;;;;1.45;0.88;;;23.90;29.30;;;;;;5090416;28;20044;-67
2023/12/08 00:45:04;;;;;;;1.23;0.82;;;23.80;29.20;;;;;;5093846;28;20047;-67
2023/12/08 00:47:29;;;;;;;1.85;1.05;;;23.80;29.30;;;;;;5093772;28;20069;-67
2023/12/08 00:49:55;;;;;;;1.60;1.08;;;23.80;29.30;;;;;;5094970;28;20114;-67
2023/12/08 00:52:21;;;;;;;1.67;1.27;;;23.80;29.20;;;;;;5094877;28;20055;-67
2023/12/08 00:54:47;;;;;;;1.27;0.95;;;23.80;29.20;;;;;;5093708;28;20044;-66
2023/12/08 00:57:13;;;;;;;1.42;1.15;;;23.80;29.30;;;;;;5093576;28;20036;-67
2023/12/08 00:59:41;;;;;;;1.27;0.85;;;23.80;29.30;;;;;;5094791;28;20498;-69
2023/12/08 01:02:07;;;;;;;1.90;0.90;;;23.70;29.30;;;;;;5093772;28;20361;-67
2023/12/08 01:04:33;;;;;;;1.25;0.80;;;23.80;29.30;;;;;;5093419;28;20044;-67
2023/12/08 01:06:59;;;;;;;1.33;0.98;;;23.70;29.30;;;;;;5093646;28;20040;-67
2023/12/08 01:09:25;;;;;;;1.42;1.05;;;23.70;29.30;;;;;;5093454;28;20040;-68
2023/12/08 01:11:51;;;;;;;1.27;0.90;;;23.70;29.40;;;;;;5093240;28;20050;-68
2023/12/08 01:14:16;;;;;;;1.38;1.05;;;23.60;29.30;;;;;;5094612;28;20036;-67
2023/12/08 01:16:42;;;;;;;1.45;1.15;;;23.70;29.30;;;;;;5093227;28;20076;-68
2023/12/08 01:19:10;;;;;;;1.15;0.70;;;23.70;29.40;;;;;;5094485;28;20036;-68
2023/12/08 01:21:37;;;;;;;1.52;1.00;;;23.70;29.40;;;;;;5094240;28;20040;-68
2023/12/08 01:24:04;;;;;;;1.42;1.10;;;23.70;29.40;;;;;;5093368;28;20395;-67
2023/12/08 01:26:29;;;;;;;2.03;1.20;;;23.70;29.30;;;;;;5094231;28;20058;-67
2023/12/08 01:28:55;;;;;;;1.38;1.23;;;23.70;29.30;;;;;;5092965;28;20040;-68
2023/12/08 01:31:21;;;;;;;1.38;0.95;;;23.70;29.20;;;;;;5094184;28;20032;-67
2023/12/08 01:33:47;;;;;;;1.70;1.05;;;23.70;29.30;;;;;;5092734;28;20085;-68
2023/12/08 01:36:13;;;;;;;1.90;0.98;;;23.70;29.30;;;;;;5092654;28;20052;-68
2023/12/08 01:38:44;;;;;;;1.40;1.00;;;23.70;29.30;;;;;;5092644;28;20048;-67
2023/12/08 01:41:16;;;;;;;1.48;0.75;;;23.70;29.90;;;;;;5092911;28;20040;-67
2023/12/08 01:43:42;;;;;;;1.30;1.00;;;23.70;29.30;;;;;;5093922;28;20044;-68
2023/12/08 01:46:12;;;;;;;1.60;1.00;;;23.70;29.30;;;;;;5093879;28;20040;-68
2023/12/08 01:48:37;;;;;;;1.23;0.80;;;23.70;29.30;;;;;;5092513;28;20040;-67
2023/12/08 01:51:03;;;;;;;1.75;0.90;;;23.70;29.30;;;;;;5092696;28;20048;-69
2023/12/08 01:53:30;;;;;;;1.70;0.95;;;23.60;29.30;;;;;;5093915;28;20555;-67
2023/12/08 01:55:56;;;;;;;1.50;0.90;;;23.60;29.30;;;;;;5092610;28;20372;-66
2023/12/08 01:58:23;;;;;;;1.67;0.95;;;23.60;29.30;;;;;;5092296;28;20114;-68
2023/12/08 02:00:49;;;;;;;1.50;1.15;;;23.60;29.30;;;;;;5092338;28;20044;-69
2023/12/08 02:03:15;;;;;;;1.30;0.98;;;23.60;29.30;;;;;;5092178;28;20054;-67
2023/12/08 02:05:47;;;;;;;1.85;0.90;;;23.60;29.30;;;;;;5092173;28;20097;-67
2023/12/08 02:08:13;;;;;;;1.45;0.70;;;23.50;29.30;;;;;;5092168;28;20039;-67
2023/12/08 02:10:39;;;;;;;3.08;1.30;;;23.50;29.40;;;;;;5092183;28;20052;-66
2023/12/08 02:13:04;;;;;;;1.85;1.20;;;23.40;29.50;;;;;;5092065;28;20062;-68
2023/12/08 02:15:30;;;;;;;1.65;0.80;;;23.40;29.60;;;;;;5092385;28;20105;-67
2023/12/08 02:17:57;;;;;;;1.88;1.00;;;23.30;29.60;;;;;;5092023;28;20070;-67
2023/12/08 02:20:23;;;;;;;1.30;0.95;;;23.30;30.20;;;;;;5091960;28;20559;-68
2023/12/08 02:22:48;;;;;;;1.15;1.00;;;23.30;29.60;;;;;;5092054;28;20127;-68
2023/12/08 02:25:14;;;;;;;1.40;1.00;;;23.30;29.60;;;;;;5092003;28;20036;-68
2023/12/08 02:27:40;;;;;;;1.25;1.00;;;23.30;29.60;;;;;;5092987;28;20032;-68
2023/12/08 02:30:07;;;;;;;1.25;0.77;;;23.40;29.60;;;;;;5091790;28;20040;-67
2023/12/08 02:35:39;;;;;;;1.33;0.80;;;23.40;29.70;;;;;;5130127;27;20432;-68
2023/12/08 02:38:07;;;;;;;1.20;0.85;;;23.40;29.60;;;;;;5146358;27;20100;-67
2023/12/08 02:40:33;;;;;;;1.30;1.00;;;23.50;29.60;;;;;;5128938;28;20203;-68
2023/12/08 02:42:59;;;;;;;1.52;0.70;;;23.50;29.50;;;;;;5129254;28;20047;-67
2023/12/08 02:45:25;;;;;;;1.13;0.60;;;23.50;29.60;;;;;;5128820;28;20148;-68
2023/12/08 02:47:50;;;;;;;1.33;1.00;;;23.50;29.60;;;;;;5128801;28;20035;-68
2023/12/08 02:50:16;;;;;;;1.13;0.68;;;23.50;29.60;;;;;;5128923;28;20049;-67
2023/12/08 02:52:41;;;;;;;1.30;0.98;;;23.50;29.60;;;;;;5128763;28;20466;-69
2023/12/08 02:55:08;;;;;;;1.77;0.70;;;23.50;29.50;;;;;;5128540;28;20047;-68
2023/12/08 02:57:33;;;;;;;1.17;0.60;;;23.50;29.60;;;;;;5128621;28;20155;-67
2023/12/08 02:59:59;;;;;;;1.08;0.80;;;23.40;29.60;;;;;;5128848;28;20118;-68
2023/12/08 03:02:25;;;;;;;1.50;0.60;;;23.40;29.60;;;;;;5128433;28;20032;-68
2023/12/08 03:04:50;;;;;;;1.35;0.90;;;23.40;29.60;;;;;;5129631;28;20360;-68
2023/12/08 03:07:16;;;;;;;1.25;0.70;;;23.40;29.60;;;;;;5128727;27;20047;-68
2023/12/08 03:09:42;;;;;;;1.27;0.77;;;23.30;29.60;;;;;;5129555;28;20071;-68
2023/12/08 03:12:07;;;;;;;1.13;0.70;;;23.30;29.60;;;;;;5129789;28;20487;-68
2023/12/08 03:14:33;;;;;;;1.30;1.05;;;23.30;29.70;;;;;;5129531;28;20518;-69
2023/12/08 03:16:58;;;;;;;1.73;0.77;;;23.30;29.70;;;;;;5128098;28;20040;-68
2023/12/08 03:19:24;;;;;;;1.50;1.02;;;23.30;29.80;;;;;;5145462;27;20043;-69
2023/12/08 03:21:51;;;;;;;1.73;1.38;;;23.20;29.80;;;;;;5129497;28;20035;-68
2023/12/08 03:24:16;;;;;;;2.00;1.10;;;23.20;29.80;;;;;;5128166;28;20105;-67
2023/12/08 03:26:43;;;;;;;1.15;0.60;;;23.20;29.90;;;;;;5129394;28;20075;-68
2023/12/08 03:29:09;;;;;;;1.23;0.80;;;23.10;29.90;;;;;;5128117;28;20043;-68
2023/12/08 03:31:34;;;;;;;0.95;0.60;;;23.10;29.90;;;;;;5127916;28;20104;-68
2023/12/08 03:34:00;;;;;;;1.65;0.90;;;23.10;30.00;;;;;;5127572;28;20048;-68
2023/12/08 03:36:25;;;;;;;1.58;0.85;;;23.00;29.90;;;;;;5127811;28;20047;-68
2023/12/08 03:38:51;;;;;;;1.35;0.80;;;23.00;29.90;;;;;;5129213;28;20122;-67
2023/12/08 03:41:17;;;;;;;1.65;1.08;;;23.00;29.90;;;;;;5127629;28;20051;-68
2023/12/08 03:43:42;;;;;;;1.35;0.57;;;23.00;29.90;;;;;;5127764;28;20046;-67
2023/12/08 03:46:08;;;;;;;0.95;0.80;;;23.00;30.00;;;;;;5118235;28;20046;-68
2023/12/08 03:48:36;;;;;;;1.05;0.88;;;23.00;29.90;;;;;;5113893;28;20044;-66
2023/12/08 03:51:02;;;;;;;1.80;0.93;;;23.00;29.90;;;;;;5115302;28;20036;-68
2023/12/08 03:53:28;;;;;;;1.52;0.82;;;23.00;30.00;;;;;;5115497;28;20399;-68
2023/12/08 03:55:54;;;;;;;1.98;0.90;;;23.10;29.90;;;;;;5113848;28;20048;-68
2023/12/08 03:58:19;;;;;;;0.82;0.50;;;23.10;29.90;;;;;;5113660;28;20046;-68
2023/12/08 04:00:45;;;;;;;1.13;0.82;;;23.10;29.90;;;;;;5113697;28;20124;-68
2023/12/08 04:03:10;;;;;;;0.90;0.60;;;23.10;29.90;;;;;;5114905;28;20166;-67
2023/12/08 04:05:36;;;;;;;1.20;0.70;;;23.00;29.90;;;;;;5114036;28;20796;-68
2023/12/08 04:08:04;;;;;;;1.42;0.77;;;23.10;29.90;;;;;;5113575;28;20130;-68
2023/12/08 04:10:30;;;;;;;1.17;0.77;;;23.10;29.90;;;;;;5114869;28;20035;-68
2023/12/08 04:12:56;;;;;;;1.20;0.80;;;23.00;29.80;;;;;;5114833;28;20447;-68
2023/12/08 04:15:22;;;;;;;1.15;0.77;;;23.10;29.90;;;;;;5113422;28;20126;-68
2023/12/08 04:17:47;;;;;;;2.55;0.80;;;23.00;29.90;;;;;;5113233;28;20118;-68
2023/12/08 04:20:13;;;;;;;1.20;0.60;;;23.10;29.90;;;;;;5114803;28;20378;-68
2023/12/08 04:22:39;;;;;;;1.23;0.63;;;23.00;29.90;;;;;;5113500;28;20089;-68
2023/12/08 04:25:05;;;;;;;1.25;0.70;;;23.00;29.90;;;;;;5114632;28;20523;-69
2023/12/08 04:27:30;;;;;;;1.98;1.15;;;23.00;29.90;;;;;;5114428;28;20071;-68
2023/12/08 04:29:56;;;;;;;1.17;0.60;;;23.00;29.90;;;;;;5113216;28;20074;-68
2023/12/08 04:32:22;;;;;;;1.23;0.88;;;23.00;29.90;;;;;;5114405;28;20032;-68
2023/12/08 04:34:47;;;;;;;1.17;0.65;;;23.00;29.90;;;;;;5112708;28;20051;-68
2023/12/08 04:37:13;;;;;;;2.05;0.60;;;23.00;29.90;;;;;;5114594;28;20035;-68
2023/12/08 04:39:38;;;;;;;1.10;0.40;;;23.00;29.90;;;;;;5114368;28;20047;-67
2023/12/08 04:42:04;;;;;;;0.95;0.70;;;22.90;29.90;;;;;;5114292;28;20039;-68
2023/12/08 04:44:30;;;;;;;2.20;0.82;;;22.90;29.90;;;;;;5113127;28;20039;-68
2023/12/08 04:46:56;;;;;;;1.67;0.80;;;22.90;29.90;;;;;;5113216;28;20444;-68
2023/12/08 04:49:21;;;;;;;1.10;0.90;;;22.90;29.90;;;;;;5112940;28;20382;-68
2023/12/08 04:51:47;;;;;;;0.98;0.63;;;22.90;29.90;;;;;;5114000;28;20127;-68
2023/12/08 04:54:12;;;;;;;2.85;0.98;;;22.90;29.90;;;;;;5114118;28;20043;-68
2023/12/08 04:56:38;;;;;;;1.25;0.80;;;22.90;29.90;;;;;;5112165;28;20387;-66
2023/12/08 04:59:04;;;;;;;0.95;0.63;;;22.90;29.90;;;;;;5112142;28;20039;-68
2023/12/08 05:01:30;;;;;;;1.25;0.90;;;22.90;29.90;;;;;;5112614;28;20040;-68
2023/12/08 05:03:55;;;;;;;2.08;1.00;;;22.80;29.80;;;;;;5112641;28;20070;-68
2023/12/08 05:06:23;;;;;;;1.60;0.70;;;22.90;29.90;;;;;;5112425;28;20396;-68
2023/12/08 05:08:48;;;;;;;0.90;0.60;;;22.90;29.90;;;;;;5112414;28;20073;-68
2023/12/08 05:11:14;;;;;;;1.10;0.63;;;22.90;29.80;;;;;;5113828;28;20031;-67
2023/12/08 05:13:40;;;;;;;1.10;0.80;;;22.90;29.80;;;;;;5112302;28;20035;-68
2023/12/08 05:16:09;;;;;;;1.13;0.80;;;23.00;29.80;;;;;;5112336;28;20032;-67
2023/12/08 05:18:35;;;;;;;1.00;0.60;;;23.00;29.80;;;;;;5112323;28;20290;-67
2023/12/08 05:21:01;;;;;;;1.20;0.77;;;23.00;29.70;;;;;;5112357;28;20050;-68
2023/12/08 05:23:26;;;;;;;1.15;0.60;;;23.10;29.70;;;;;;5113605;28;20035;-68
2023/12/08 05:25:52;;;;;;;0.80;0.50;;;23.10;29.60;;;;;;5113529;28;20039;-68
2023/12/08 05:28:17;;;;;;;1.48;0.93;;;23.20;29.60;;;;;;5112059;28;20176;-68
2023/12/08 05:30:43;;;;;;;1.25;0.85;;;23.20;29.60;;;;;;5112280;28;20069;-68
2023/12/08 05:33:09;;;;;;;1.25;0.90;;;23.20;29.50;;;;;;5113016;28;20036;-67
2023/12/08 05:35:34;;;;;;;1.45;0.68;;;23.20;29.50;;;;;;5113006;28;20036;-68
2023/12/08 05:38:00;;;;;;;1.10;0.77;;;23.20;29.50;;;;;;5112174;28;20054;-68
2023/12/08 05:40:26;;;;;;;1.60;1.08;;;23.20;29.50;;;;;;5113217;28;20042;-68
2023/12/08 05:42:51;;;;;;;1.73;0.70;;;23.20;29.60;;;;;;5111808;28;20071;-68
2023/12/08 05:45:17;;;;;;;1.00;0.57;;;23.20;29.60;;;;;;5112947;28;20402;-68
2023/12/08 05:47:43;;;;;;;1.77;1.42;;;23.20;29.50;;;;;;5112969;28;20126;-68
2023/12/08 05:50:09;;;;;;;1.10;0.77;;;23.20;29.60;;;;;;5111747;28;20050;-68
2023/12/08 05:52:34;;;;;;;1.17;0.70;;;23.20;29.60;;;;;;5111558;28;20457;-68
2023/12/08 05:55:00;;;;;;;1.13;0.60;;;23.10;29.60;;;;;;5112987;28;20031;-68
2023/12/08 05:57:27;;;;;;;1.30;0.80;;;23.10;29.60;;;;;;5112884;27;20450;-68
2023/12/08 05:59:52;;;;;;;1.67;0.70;;;23.10;29.70;;;;;;5112819;28;20049;-68
2023/12/08 06:02:18;;;;;;;1.17;0.60;;;23.10;29.70;;;;;;5112795;28;20110;-68
2023/12/08 06:04:43;;;;;;;1.30;0.63;;;23.10;29.70;;;;;;5112735;28;20039;-68
2023/12/08 06:07:10;;;;;;;1.13;0.77;;;23.10;29.70;;;;;;5111202;28;20562;-67
2023/12/08 06:09:36;;;;;;;1.00;0.63;;;23.10;29.70;;;;;;5112444;28;20046;-68
2023/12/08 06:12:02;;;;;;;1.20;0.70;;;23.00;29.70;;;;;;5111274;28;20031;-68
2023/12/08 06:14:28;;;;;;;1.23;0.88;;;23.00;29.70;;;;;;5112641;28;20054;-68
2023/12/08 06:16:53;;;;;;;1.25;0.82;;;23.00;29.70;;;;;;5111187;28;20470;-68
2023/12/08 06:19:19;;;;;;;1.17;0.70;;;23.00;29.70;;;;;;5112528;28;20028;-68
2023/12/08 06:21:45;;;;;;;1.08;0.75;;;23.10;29.70;;;;;;5111076;28;20039;-68
2023/12/08 06:24:10;;;;;;;1.20;0.95;;;23.10;29.80;;;;;;5111166;28;20043;-68
2023/12/08 06:26:39;;;;;;;1.00;0.60;;;23.10;29.70;;;;;;5111115;28;20040;-68
2023/12/08 06:29:04;;;;;;;1.15;0.52;;;23.10;29.70;;;;;;5112564;28;20035;-68
2023/12/08 06:31:31;;;;;;;1.00;0.60;;;23.10;29.70;;;;;;5111301;28;20399;-68
2023/12/08 06:33:57;;;;;;;1.00;0.70;;;23.20;29.70;;;;;;5110695;28;20130;-67
2023/12/08 06:36:22;;;;;;;1.48;1.05;;;23.20;29.70;;;;;;5112295;28;20443;-68
2023/12/08 06:38:48;;;;;;;1.13;0.57;;;23.20;29.60;;;;;;5110088;28;20391;-68
2023/12/08 06:41:13;;;;;;;7.85;2.50;;;23.20;29.60;;;;;;5110901;28;20503;-68
2023/12/08 06:43:39;;;;;;;2.00;1.77;;;23.20;30.00;;;;;;5109685;28;20390;-68
2023/12/08 06:46:05;;;;;;;3.10;1.90;;;23.20;30.60;;;;;;5109780;28;20137;-68
2023/12/08 06:48:30;;;;;;;2.33;1.52;;;23.10;31.10;;;;;;5109003;28;20046;-68
2023/12/08 06:50:56;;;;;;;4.03;3.60;;;23.10;31.80;;;;;;5110534;28;20039;-68
2023/12/08 06:53:21;;;;;;;3.70;3.22;;;23.00;31.70;;;;;;5111301;28;20111;-67
2023/12/08 06:55:47;;;;;;;2.22;2.00;;;23.00;31.40;;;;;;5111735;28;20394;-68
2023/12/08 06:58:13;;;;;;;4.32;3.15;;;23.10;31.80;;;;;;5111569;28;20395;-67
2023/12/08 07:00:38;;;;;;;6.20;2.67;;;23.20;31.70;;;;;;5111430;28;20046;-67
2023/12/08 07:03:05;;;;;;;3.20;1.85;;;23.30;31.40;;;;;;5110924;28;20027;-67
2023/12/08 07:05:31;;;;;;;3.30;2.05;;;23.50;31.40;;;;;;5106832;28;20039;-67
2023/12/08 07:07:57;;;;;;;9.00;2.30;;;23.60;31.40;;;;;;5109302;28;20501;-67
2023/12/08 07:10:23;;;;;;;1.95;1.50;;;23.70;31.40;;;;;;5109147;28;20075;-67
2023/12/08 07:12:49;;;;;;;4.22;1.85;;;23.80;31.30;;;;;;5107708;28;20054;-67
2023/12/08 07:15:14;;;;;;;13.23;2.20;;;23.90;31.20;;;;;;5108826;28;20398;-68
2023/12/08 07:17:40;;;;;;;3.78;1.33;;;24.00;31.20;;;;;;5107410;28;20032;-68
2023/12/08 07:20:09;;;;;;;2.78;1.23;;;24.00;31.00;;;;;;5107228;28;20465;-68
2023/12/08 07:22:35;;;;;;;4.47;1.42;;;24.00;31.00;;;;;;5110431;28;20035;-68
2023/12/08 07:25:04;;;;;;;2.78;1.70;;;24.00;31.10;;;;;;5110208;28;20587;-68
2023/12/08 07:27:31;;;;;;;4.43;1.38;;;23.90;31.20;;;;;;5110210;28;20038;-67
2023/12/08 07:29:57;;;;;;;3.80;1.65;;;23.80;31.40;;;;;;5106289;27;21241;-68
2023/12/08 07:32:22;;;;;;;3.00;1.50;;;23.70;31.50;;;;;;5095548;27;20527;-68
2023/12/08 07:34:48;;;;;;;1.75;1.10;;;23.70;31.50;;;;;;5100898;28;20051;-69
2023/12/08 07:37:14;;;;;;;2.47;1.00;;;23.60;31.60;;;;;;5101572;28;20050;-69
2023/12/08 07:39:40;;;;;;;5.10;1.77;;;23.60;31.80;;;;;;5093827;28;20146;-70
2023/12/08 07:42:06;;;;;;;2.10;1.20;;;23.50;31.70;;;;;;5111505;27;20051;-67
2023/12/08 07:44:31;;;;;;;3.28;1.42;;;23.50;31.70;;;;;;5089943;28;20096;-71
2023/12/08 07:46:57;;;;;;;2.80;2.40;;;23.60;31.70;;;;;;5089685;28;20046;-70
2023/12/08 07:49:22;;;;;;;4.50;2.22;;;23.60;31.50;;;;;;5105787;28;20534;-65
2023/12/08 07:51:48;;;;;;;5.32;1.85;;;23.60;31.60;;;;;;5088975;28;20062;-73
2023/12/08 07:54:14;;;;;;;8.85;2.10;;;23.50;31.80;;;;;;5089925;28;20465;-67
2023/12/08 07:56:39;;;;;;;5.65;2.08;;;23.40;32.10;;;;;;5088374;28;20042;-67
2023/12/08 07:59:05;;;;;;;6.18;1.70;;;23.30;32.30;;;;;;5089571;28;20055;-67
2023/12/08 08:01:31;;;;;;;4.65;1.40;;;23.20;32.50;;;;;;5089870;28;20110;-67
2023/12/08 08:03:57;;;;;;;6.15;1.83;;;23.10;33.60;;;;;;5107865;28;20073;-68
2023/12/08 08:06:24;;;;;;;2.20;1.23;;;23.00;33.20;;;;;;5091376;28;20624;-67
2023/12/08 08:08:50;;;;;;;3.83;1.92;;;23.00;33.50;;;;;;5103063;28;20028;-67
2023/12/08 08:11:15;;;;;;;5.95;1.67;;;23.00;33.40;;;;;;5090861;28;20051;-67
2023/12/08 08:13:44;;;;;;;3.95;1.65;;;23.10;33.40;;;;;;5112876;27;20078;-67
2023/12/08 08:16:09;;;;;;;2.95;1.45;;;23.10;33.30;;;;;;5091968;28;20544;-65
2023/12/08 08:18:35;;;;;;;2.78;1.45;;;23.20;33.30;;;;;;5089916;28;20044;-69
2023/12/08 08:21:00;;;;;;;7.60;1.60;;;23.20;33.20;;;;;;5093191;28;20036;-68
2023/12/08 08:23:26;;;;;;;4.47;1.70;;;23.20;33.20;;;;;;5110473;27;20040;-66
2023/12/08 08:25:52;;;;;;;4.68;2.05;;;23.40;33.00;;;;;;5095427;28;20036;-67
2023/12/08 08:28:18;;;;;;;5.70;2.20;;;23.50;32.50;;;;;;5112779;27;20036;-67
2023/12/08 08:30:44;;;;;;;11.15;2.28;;;23.70;32.30;;;;;;5110580;27;20043;-70
2023/12/08 08:33:10;;;;;;;5.45;1.92;;;23.80;32.40;;;;;;5113691;27;20047;-70
2023/12/08 08:35:37;;;;;;;6.18;2.42;;;24.10;32.50;;;;;;5099207;28;20104;-69
2023/12/08 08:38:03;;;;;;;4.65;2.00;;;24.20;32.50;;;;;;5102139;28;20163;-69
2023/12/08 08:40:31;;;;;;;6.88;2.33;;;24.30;32.40;;;;;;5097354;28;20135;-68
2023/12/08 08:42:56;;;;;;;7.50;1.63;;;24.50;32.30;;;;;;5110224;27;20051;-69
2023/12/08 08:45:22;;;;;;;13.60;2.17;;;24.60;32.30;;;;;;5109080;27;20040;-67
2023/12/08 08:47:48;;;;;;;6.68;2.17;;;24.60;32.30;;;;;;5095061;28;20044;-68
2023/12/08 08:50:13;;;;;;;6.05;1.92;;;24.40;32.20;;;;;;5095200;28;20674;-70
2023/12/08 08:52:39;;;;;;;3.85;1.63;;;24.10;32.30;;;;;;5094798;28;20454;-70
2023/12/08 08:55:05;;;;;;;7.65;2.22;;;23.90;32.60;;;;;;5096982;27;20533;-68
2023/12/08 08:57:31;;;;;;;8.65;1.90;;;23.60;33.00;;;;;;5096174;28;20050;-67
2023/12/08 08:59:57;;;;;;;9.10;1.58;;;23.40;33.30;;;;;;5097839;28;20036;-69
2023/12/08 09:02:22;;;;;;;4.28;1.50;;;23.30;33.50;;;;;;5097750;28;20089;-66
2023/12/08 09:04:48;;;;;;;4.85;1.17;;;23.20;33.50;;;;;;5094830;28;20027;-69
2023/12/08 09:07:13;;;;;;;4.90;1.60;;;23.20;33.50;;;;;;5111269;27;20110;-68
2023/12/08 09:09:39;;;;;;;3.05;1.08;;;23.20;33.50;;;;;;5099622;28;20475;-69
2023/12/08 09:12:07;;;;;;;8.77;1.70;;;23.10;33.30;;;;;;5100619;28;20446;-69
2023/12/08 09:14:33;;;;;;;4.40;1.65;;;23.20;33.40;;;;;;5094665;28;20040;-68
2023/12/08 09:17:02;;;;;;;3.78;1.05;;;23.10;33.50;;;;;;5099206;28;20433;-69
2023/12/08 09:19:28;;;;;;;5.50;1.33;;;23.10;33.60;;;;;;5097170;27;20046;-72
2023/12/08 09:21:54;;;;;;;3.03;1.58;;;23.20;33.40;;;;;;5097660;27;20069;-71
2023/12/08 09:24:20;;;;;;;2.92;1.67;;;23.20;33.50;;;;;;5108483;27;20454;-72
2023/12/08 09:26:46;;;;;;;2.47;1.65;;;23.10;33.80;;;;;;5100515;28;20032;-70
2023/12/08 09:29:11;;;;;;;2.30;1.80;;;23.20;34.10;;;;;;5099647;28;20107;-70
2023/12/08 09:31:37;;;;;;;2.50;1.67;;;23.20;34.20;;;;;;5106234;28;20035;-70
2023/12/08 09:34:03;;;;;;;4.38;1.73;;;23.20;33.90;;;;;;5112630;27;20061;-67
2023/12/08 09:36:28;;;;;;;2.30;1.60;;;23.20;33.60;;;;;;5106566;28;20040;-70
2023/12/08 09:38:54;;;;;;;6.22;1.95;;;23.30;33.40;;;;;;5092214;28;20035;-70
2023/12/08 09:41:20;;;;;;;3.95;1.98;;;23.40;33.30;;;;;;5100059;28;20051;-69
2023/12/08 09:46:32;;;;;;;2.75;1.90;;;23.50;33.00;;;;;;5067985;28;20447;-65
2023/12/08 09:49:00;;;;;;;7.10;2.63;;;23.60;32.70;;;;;;5048256;28;20068;-69
2023/12/08 09:51:28;;;;;;;3.08;2.33;;;23.70;32.40;;;;;;5038817;28;20042;-69
2023/12/08 09:53:53;;;;;;;4.63;2.83;;;23.70;32.10;;;;;;5041155;28;20671;-70
2023/12/08 09:56:21;;;;;;;4.68;2.72;;;23.70;31.80;;;;;;5039234;28;20077;-71
2023/12/08 09:58:47;;;;;;;4.00;2.22;;;23.80;32.00;;;;;;5045786;28;20041;-70
2023/12/08 10:01:13;;;;;;;3.83;3.53;;;23.80;32.00;;;;;;5042937;28;20076;-69
2023/12/08 10:03:41;;;;;;;5.95;1.85;;;23.80;31.60;;;;;;5038310;28;20501;-72
2023/12/08 10:06:07;;;;;;;2.03;1.83;;;23.90;31.50;;;;;;5042460;28;20034;-69
2023/12/08 10:08:34;;;;;;;5.88;2.10;;;23.90;31.70;;;;;;5041793;28;20037;-70
2023/12/08 10:10:59;;;;;;;2.15;1.40;;;24.00;32.00;;;;;;5061673;28;20052;-71
2023/12/08 10:13:26;;;;;;;3.03;1.50;;;24.00;32.80;;;;;;5038108;28;20400;-71
2023/12/08 10:15:51;;;;;;;5.30;1.20;;;23.90;32.00;;;;;;5047397;28;20073;-71
2023/12/08 10:18:23;;;;;;;2.88;1.48;;;24.10;32.00;;;;;;5035698;28;20077;-70
2023/12/08 10:20:49;;;;;;;3.67;1.20;;;24.10;32.30;;;;;;5045359;28;20060;-70
2023/12/08 10:23:21;;;;;;;3.47;1.63;;;24.10;32.30;;;;;;5040614;28;20076;-71
2023/12/08 10:25:47;;;;;;;1.45;0.90;;;24.10;32.40;;;;;;5040439;28;20036;-70
2023/12/08 10:28:13;;;;;;;2.55;1.00;;;24.00;32.50;;;;;;5036397;28;20126;-71
2023/12/08 10:30:45;;;;;;;3.38;1.25;;;24.00;32.60;;;;;;5024058;28;20072;-71
2023/12/08 10:33:20;;;;;;;2.30;1.20;;;24.00;32.80;;;;;;5042860;28;20032;-72
2023/12/08 10:35:46;;;;;;;1.50;0.93;;;23.90;32.80;;;;;;5040391;28;20049;-72
2023/12/08 10:38:13;;;;;;;2.58;1.60;;;24.00;32.80;;;;;;5038717;28;20045;-72
2023/12/08 10:40:46;;;;;;;2.22;1.10;;;23.90;32.80;;;;;;5038704;28;20064;-72
2023/12/08 10:43:25;;;;;;;3.55;1.15;;;24.00;33.00;;;;;;5048837;28;20049;-72
2023/12/08 10:45:52;;;;;;;2.55;1.75;;;23.90;33.00;;;;;;5037533;28;20416;-71
2023/12/08 10:48:20;;;;;;;2.83;1.40;;;23.90;32.90;;;;;;5040566;28;20056;-67
2023/12/08 10:50:48;;;;;;;2.70;1.50;;;23.90;33.00;;;;;;5052236;28;20118;-70
2023/12/08 10:53:17;;;;;;;1.67;1.25;;;23.90;33.00;;;;;;5036867;28;21672;-67
2023/12/08 10:55:49;;;;;;;4.70;1.83;;;23.90;32.90;;;;;;5036595;28;20563;-69
2023/12/08 10:58:19;;;;;;;2.53;1.80;;;23.80;32.90;;;;;;5021337;28;20358;-66
2023/12/08 11:00:45;;;;;;;2.92;1.50;;;23.80;32.90;;;;;;5016880;28;20044;-67
2023/12/08 11:03:12;;;;;;;3.55;2.22;;;23.80;33.30;;;;;;5018929;28;20040;-69
2023/12/08 11:05:45;;;;;;;3.03;1.92;;;23.70;33.50;;;;;;5036287;28;20048;-72
2023/12/08 11:08:12;;;;;;;3.33;1.70;;;23.70;33.60;;;;;;5041593;28;20052;-68
2023/12/08 11:10:42;;;;;;;5.70;1.85;;;23.60;33.60;;;;;;5018836;28;20045;-69
2023/12/08 11:13:15;;;;;;;3.33;1.70;;;23.70;33.70;;;;;;5032020;28;20073;-69
2023/12/08 11:15:49;;;;;;;3.05;1.58;;;23.60;33.70;;;;;;5020350;28;20072;-67
2023/12/08 11:18:35;;;;;;;3.67;1.98;;;23.70;33.70;;;;;;5014627;28;20052;-68
2023/12/08 11:21:03;;;;;;;2.38;1.55;;;23.70;33.80;;;;;;5022034;28;20374;-67
2023/12/08 11:23:29;;;;;;;1.73;1.58;;;23.70;33.80;;;;;;5022908;28;20046;-67
2023/12/08 11:26:05;;;;;;;3.80;1.83;;;23.70;33.80;;;;;;5025565;28;20045;-67
2023/12/08 11:28:54;;;;;;;3.33;1.05;;;23.70;33.80;;;;;;5019715;28;20653;-69
2023/12/08 11:31:33;;;;;;;3.88;1.90;;;23.80;33.90;;;;;;5024784;28;20046;-69
2023/12/08 11:36:45;;;;;;;3.20;1.92;;;24.00;33.50;;;;;;5117946;27;20373;-65
2023/12/08 11:42:17;;;;;;;3.53;1.92;;;23.70;33.60;;;;;;5072894;27;20419;-65
2023/12/08 11:44:44;;;;;;;5.20;2.58;;;23.70;33.70;;;;;;5073890;28;20128;-66
2023/12/08 11:47:12;;;;;;;5.93;3.17;;;23.50;34.10;;;;;;5050459;28;20053;-68
2023/12/08 11:49:38;;;;;;;5.88;2.70;;;23.40;34.40;;;;;;5048658;28;20083;-64
2023/12/08 12:00:41;;;;;;;3.15;2.08;;;23.40;34.90;;;;;;5111492;27;20441;-66
2023/12/08 12:03:07;;;;;;;3.97;1.95;;;23.30;34.80;;;;;;5105720;28;20131;-68
2023/12/08 12:05:35;;;;;;;2.50;2.20;;;23.30;35.00;;;;;;5096058;28;20479;-65
2023/12/08 12:08:02;;;;;;;3.72;2.67;;;23.40;35.10;;;;;;5113049;28;20253;-65
2023/12/08 12:10:30;;;;;;;3.92;1.77;;;23.40;35.10;;;;;;5094510;28;20176;-67
2023/12/08 12:13:09;;;;;;;2.78;2.00;;;23.30;35.00;;;;;;5111509;28;20044;-67
2023/12/08 12:15:37;;;;;;;1.80;1.55;;;23.30;35.20;;;;;;5101704;28;20535;-68
2023/12/08 12:18:03;;;;;;;6.22;1.50;;;23.30;35.30;;;;;;5112812;28;20048;-66
2023/12/08 12:20:31;;;;;;;3.05;1.40;;;23.30;35.30;;;;;;5100387;28;20040;-65
2023/12/08 12:22:57;;;;;;;5.63;1.75;;;23.40;35.30;;;;;;5112551;28;20039;-66
2023/12/08 12:25:23;;;;;;;3.50;1.58;;;23.40;35.30;;;;;;5099745;28;20550;-65
2023/12/08 12:27:49;;;;;;;2.45;1.30;;;23.50;35.30;;;;;;5115621;28;20059;-66
2023/12/08 12:30:16;;;;;;;4.75;1.80;;;23.50;35.30;;;;;;5097996;28;20064;-66
2023/12/08 12:32:44;;;;;;;1.98;1.65;;;23.50;35.40;;;;;;5098042;28;20047;-65
2023/12/08 12:35:10;;;;;;;4.32;1.60;;;23.50;35.40;;;;;;5099948;28;20028;-68
2023/12/08 12:37:37;;;;;;;3.28;1.17;;;23.50;35.50;;;;;;5096079;28;20046;-65
2023/12/08 12:40:07;;;;;;;5.97;1.65;;;23.50;35.60;;;;;;5100225;28;20116;-62
2023/12/08 12:42:42;;;;;;;2.67;1.45;;;23.50;35.80;;;;;;5097945;28;20048;-66
2023/12/08 12:45:09;;;;;;;3.50;1.65;;;23.40;35.80;;;;;;5111369;28;20063;-65
2023/12/08 12:47:34;;;;;;;2.47;1.52;;;23.40;35.90;;;;;;5099574;28;20834;-66
2023/12/08 12:52:40;;;;;;;2.47;1.33;;;23.40;36.00;;;;;;5093755;27;20451;-66
2023/12/08 12:55:26;;;;;;;3.00;1.33;;;23.30;36.20;;;;;;5090876;28;20032;-64
2023/12/08 12:57:52;;;;;;;2.15;1.10;;;23.20;36.40;;;;;;5091307;28;20040;-66
2023/12/08 13:00:37;;;;;;;5.95;1.58;;;23.20;36.40;;;;;;5090856;28;20063;-67
2023/12/08 13:03:06;;;;;;;1.92;1.02;;;23.20;36.50;;;;;;5089728;28;20067;-65
2023/12/08 13:05:32;;;;;;;2.45;1.45;;;23.10;36.60;;;;;;5092983;28;20562;-66